sensor_id;sensor_type;location;lat;lon;timestamp;P1;durP1;ratioP1;P2;durP2;ratioP2
317;SDS011;146;53.448;10.228;2023-06-24T00:00:06;11.57;;;10.50;;
317;SDS011;146;53.448;10.228;2023-06-24T00:02:36;10.47;;;9.47;;
317;SDS011;146;53.448;10.228;2023-06-24T00:05:18;16.23;;;10.93;;
317;SDS011;146;53.448;10.228;2023-06-24T00:07:51;11.70;;;10.60;;
317;SDS011;146;53.448;10.228;2023-06-24T00:10:30;10.60;;;9.60;;
317;SDS011;146;53.448;10.228;2023-06-24T00:13:07;11.80;;;10.60;;
317;SDS011;146;53.448;10.228;2023-06-24T00:15:46;9.77;;;9.00;;
317;SDS011;146;53.448;10.228;2023-06-24T00:18:15;14.10;;;12.80;;
317;SDS011;146;53.448;10.228;2023-06-24T00:20:45;11.40;;;10.40;;
317;SDS011;146;53.448;10.228;2023-06-24T00:23:21;11.43;;;10.43;;
317;SDS011;146;53.448;10.228;2023-06-24T00:25:59;12.03;;;10.80;;
317;SDS011;146;53.448;10.228;2023-06-24T00:28:45;13.00;;;11.70;;
317;SDS011;146;53.448;10.228;2023-06-24T00:31:17;11.50;;;10.60;;
317;SDS011;146;53.448;10.228;2023-06-24T00:33:54;11.70;;;10.70;;
317;SDS011;146;53.448;10.228;2023-06-24T00:36:24;12.80;;;11.33;;
317;SDS011;146;53.448;10.228;2023-06-24T00:38:53;12.53;;;11.43;;
317;SDS011;146;53.448;10.228;2023-06-24T00:41:29;13.80;;;11.80;;
317;SDS011;146;53.448;10.228;2023-06-24T00:43:58;13.73;;;11.97;;
317;SDS011;146;53.448;10.228;2023-06-24T00:46:33;13.57;;;12.30;;
317;SDS011;146;53.448;10.228;2023-06-24T00:49:00;12.20;;;11.17;;
317;SDS011;146;53.448;10.228;2023-06-24T00:51:34;12.63;;;11.53;;
317;SDS011;146;53.448;10.228;2023-06-24T00:54:01;13.70;;;12.30;;
317;SDS011;146;53.448;10.228;2023-06-24T00:56:35;13.83;;;12.53;;
317;SDS011;146;53.448;10.228;2023-06-24T00:59:11;14.13;;;12.80;;
317;SDS011;146;53.448;10.228;2023-06-24T01:01:39;14.57;;;12.97;;
317;SDS011;146;53.448;10.228;2023-06-24T01:04:14;13.67;;;11.70;;
317;SDS011;146;53.448;10.228;2023-06-24T01:06:52;14.20;;;12.70;;
317;SDS011;146;53.448;10.228;2023-06-24T01:09:20;13.30;;;12.10;;
317;SDS011;146;53.448;10.228;2023-06-24T01:11:50;12.97;;;11.77;;
317;SDS011;146;53.448;10.228;2023-06-24T01:14:21;14.03;;;12.70;;
317;SDS011;146;53.448;10.228;2023-06-24T01:16:53;14.60;;;13.00;;
317;SDS011;146;53.448;10.228;2023-06-24T01:19:44;13.30;;;12.10;;
317;SDS011;146;53.448;10.228;2023-06-24T01:22:37;13.50;;;12.20;;
317;SDS011;146;53.448;10.228;2023-06-24T01:25:52;14.97;;;13.60;;
317;SDS011;146;53.448;10.228;2023-06-24T01:28:50;14.77;;;12.83;;
317;SDS011;146;53.448;10.228;2023-06-24T01:31:40;15.53;;;14.00;;
317;SDS011;146;53.448;10.228;2023-06-24T01:34:24;15.17;;;13.70;;
317;SDS011;146;53.448;10.228;2023-06-24T01:36:59;15.13;;;13.70;;
317;SDS011;146;53.448;10.228;2023-06-24T01:39:37;15.50;;;14.00;;
317;SDS011;146;53.448;10.228;2023-06-24T01:42:14;14.33;;;12.93;;
317;SDS011;146;53.448;10.228;2023-06-24T01:44:55;14.93;;;13.53;;
317;SDS011;146;53.448;10.228;2023-06-24T01:47:27;14.57;;;13.27;;
317;SDS011;146;53.448;10.228;2023-06-24T01:49:55;14.80;;;13.40;;
317;SDS011;146;53.448;10.228;2023-06-24T01:52:35;14.77;;;13.30;;
317;SDS011;146;53.448;10.228;2023-06-24T01:55:04;14.93;;;13.60;;
317;SDS011;146;53.448;10.228;2023-06-24T01:57:35;15.27;;;13.67;;
317;SDS011;146;53.448;10.228;2023-06-24T02:00:09;18.57;;;13.70;;
317;SDS011;146;53.448;10.228;2023-06-24T02:02:46;14.70;;;13.27;;
317;SDS011;146;53.448;10.228;2023-06-24T02:05:14;14.50;;;13.27;;
317;SDS011;146;53.448;10.228;2023-06-24T02:07:44;14.77;;;13.47;;
317;SDS011;146;53.448;10.228;2023-06-24T02:10:15;13.93;;;12.53;;
317;SDS011;146;53.448;10.228;2023-06-24T02:12:53;15.20;;;13.90;;
317;SDS011;146;53.448;10.228;2023-06-24T02:15:22;15.80;;;14.30;;
317;SDS011;146;53.448;10.228;2023-06-24T02:17:51;14.37;;;13.07;;
317;SDS011;146;53.448;10.228;2023-06-24T02:20:21;13.23;;;12.03;;
317;SDS011;146;53.448;10.228;2023-06-24T02:22:51;13.67;;;12.37;;
317;SDS011;146;53.448;10.228;2023-06-24T02:25:37;14.07;;;12.73;;
317;SDS011;146;53.448;10.228;2023-06-24T02:28:18;14.23;;;12.83;;
317;SDS011;146;53.448;10.228;2023-06-24T02:30:46;14.90;;;13.40;;
317;SDS011;146;53.448;10.228;2023-06-24T02:33:21;15.50;;;14.10;;
317;SDS011;146;53.448;10.228;2023-06-24T02:35:48;16.50;;;14.80;;
317;SDS011;146;53.448;10.228;2023-06-24T02:38:24;13.87;;;12.77;;
317;SDS011;146;53.448;10.228;2023-06-24T02:40:56;17.17;;;15.37;;
317;SDS011;146;53.448;10.228;2023-06-24T02:43:23;14.17;;;12.87;;
317;SDS011;146;53.448;10.228;2023-06-24T02:45:50;15.70;;;14.30;;
317;SDS011;146;53.448;10.228;2023-06-24T02:48:26;15.70;;;14.10;;
317;SDS011;146;53.448;10.228;2023-06-24T02:50:56;15.90;;;14.30;;
317;SDS011;146;53.448;10.228;2023-06-24T02:53:24;15.17;;;13.63;;
317;SDS011;146;53.448;10.228;2023-06-24T02:55:52;14.87;;;13.37;;
317;SDS011;146;53.448;10.228;2023-06-24T02:58:21;14.73;;;13.33;;
317;SDS011;146;53.448;10.228;2023-06-24T03:00:49;14.63;;;13.27;;
317;SDS011;146;53.448;10.228;2023-06-24T03:03:16;16.20;;;14.60;;
317;SDS011;146;53.448;10.228;2023-06-24T03:05:50;15.87;;;14.40;;
317;SDS011;146;53.448;10.228;2023-06-24T03:08:21;15.23;;;13.97;;
317;SDS011;146;53.448;10.228;2023-06-24T03:10:55;17.07;;;15.43;;
317;SDS011;146;53.448;10.228;2023-06-24T03:13:32;14.43;;;13.13;;
317;SDS011;146;53.448;10.228;2023-06-24T03:15:59;15.37;;;13.93;;
317;SDS011;146;53.448;10.228;2023-06-24T03:18:37;15.53;;;13.90;;
317;SDS011;146;53.448;10.228;2023-06-24T03:21:24;19.33;;;15.53;;
317;SDS011;146;53.448;10.228;2023-06-24T03:23:56;16.07;;;14.57;;
317;SDS011;146;53.448;10.228;2023-06-24T03:26:25;15.00;;;13.50;;
317;SDS011;146;53.448;10.228;2023-06-24T03:29:08;15.37;;;13.87;;
317;SDS011;146;53.448;10.228;2023-06-24T03:31:36;15.50;;;14.07;;
317;SDS011;146;53.448;10.228;2023-06-24T03:34:09;16.80;;;15.13;;
317;SDS011;146;53.448;10.228;2023-06-24T03:36:37;17.40;;;15.03;;
317;SDS011;146;53.448;10.228;2023-06-24T03:39:04;16.37;;;14.67;;
317;SDS011;146;53.448;10.228;2023-06-24T03:41:31;16.03;;;14.43;;
317;SDS011;146;53.448;10.228;2023-06-24T03:43:59;15.37;;;14.07;;
317;SDS011;146;53.448;10.228;2023-06-24T03:46:30;14.90;;;13.50;;
317;SDS011;146;53.448;10.228;2023-06-24T03:49:01;16.23;;;14.60;;
317;SDS011;146;53.448;10.228;2023-06-24T03:51:49;15.97;;;14.43;;
317;SDS011;146;53.448;10.228;2023-06-24T03:54:19;16.10;;;14.60;;
317;SDS011;146;53.448;10.228;2023-06-24T03:56:53;16.93;;;15.37;;
317;SDS011;146;53.448;10.228;2023-06-24T03:59:27;17.30;;;15.13;;
317;SDS011;146;53.448;10.228;2023-06-24T04:02:08;17.13;;;15.63;;
317;SDS011;146;53.448;10.228;2023-06-24T04:04:41;16.40;;;14.90;;
317;SDS011;146;53.448;10.228;2023-06-24T04:07:10;16.90;;;15.13;;
317;SDS011;146;53.448;10.228;2023-06-24T04:09:39;16.10;;;14.60;;
317;SDS011;146;53.448;10.228;2023-06-24T04:12:06;16.77;;;15.17;;
317;SDS011;146;53.448;10.228;2023-06-24T04:14:37;16.20;;;14.70;;
317;SDS011;146;53.448;10.228;2023-06-24T04:17:04;17.27;;;15.60;;
317;SDS011;146;53.448;10.228;2023-06-24T04:19:31;18.13;;;16.33;;
317;SDS011;146;53.448;10.228;2023-06-24T04:22:02;17.70;;;16.17;;
317;SDS011;146;53.448;10.228;2023-06-24T04:24:34;18.10;;;16.43;;
317;SDS011;146;53.448;10.228;2023-06-24T04:27:01;19.07;;;17.10;;
317;SDS011;146;53.448;10.228;2023-06-24T04:29:37;18.30;;;16.37;;
317;SDS011;146;53.448;10.228;2023-06-24T04:32:04;17.37;;;15.53;;
317;SDS011;146;53.448;10.228;2023-06-24T04:35:18;19.33;;;17.30;;
317;SDS011;146;53.448;10.228;2023-06-24T04:37:45;18.90;;;17.10;;
317;SDS011;146;53.448;10.228;2023-06-24T04:43:04;18.33;;;16.63;;
317;SDS011;146;53.448;10.228;2023-06-24T04:45:32;21.37;;;19.17;;
317;SDS011;146;53.448;10.228;2023-06-24T04:48:01;21.03;;;17.70;;
317;SDS011;146;53.448;10.228;2023-06-24T04:50:37;18.83;;;16.40;;
317;SDS011;146;53.448;10.228;2023-06-24T04:53:07;19.50;;;17.60;;
317;SDS011;146;53.448;10.228;2023-06-24T04:55:38;21.40;;;18.00;;
317;SDS011;146;53.448;10.228;2023-06-24T04:58:04;19.63;;;17.53;;
317;SDS011;146;53.448;10.228;2023-06-24T05:00:32;20.00;;;17.73;;
317;SDS011;146;53.448;10.228;2023-06-24T05:03:05;19.67;;;17.77;;
317;SDS011;146;53.448;10.228;2023-06-24T05:05:36;19.77;;;17.77;;
317;SDS011;146;53.448;10.228;2023-06-24T05:08:04;20.73;;;18.60;;
317;SDS011;146;53.448;10.228;2023-06-24T05:10:34;22.53;;;20.10;;
317;SDS011;146;53.448;10.228;2023-06-24T05:13:08;20.93;;;18.63;;
317;SDS011;146;53.448;10.228;2023-06-24T05:15:35;21.40;;;19.23;;
317;SDS011;146;53.448;10.228;2023-06-24T05:18:08;19.47;;;17.47;;
317;SDS011;146;53.448;10.228;2023-06-24T05:20:43;20.33;;;18.13;;
317;SDS011;146;53.448;10.228;2023-06-24T05:23:11;20.87;;;18.40;;
317;SDS011;146;53.448;10.228;2023-06-24T05:25:55;17.53;;;15.83;;
317;SDS011;146;53.448;10.228;2023-06-24T05:28:33;21.40;;;19.20;;
317;SDS011;146;53.448;10.228;2023-06-24T05:31:03;18.93;;;17.03;;
317;SDS011;146;53.448;10.228;2023-06-24T05:33:36;17.37;;;15.30;;
317;SDS011;146;53.448;10.228;2023-06-24T05:36:02;17.17;;;15.50;;
317;SDS011;146;53.448;10.228;2023-06-24T05:38:33;17.43;;;15.47;;
317;SDS011;146;53.448;10.228;2023-06-24T05:41:03;17.20;;;15.70;;
317;SDS011;146;53.448;10.228;2023-06-24T05:43:33;16.20;;;14.70;;
317;SDS011;146;53.448;10.228;2023-06-24T05:46:00;16.93;;;15.27;;
317;SDS011;146;53.448;10.228;2023-06-24T05:48:29;16.27;;;14.77;;
317;SDS011;146;53.448;10.228;2023-06-24T05:50:59;14.50;;;13.10;;
317;SDS011;146;53.448;10.228;2023-06-24T05:53:25;12.80;;;11.63;;
317;SDS011;146;53.448;10.228;2023-06-24T05:55:55;13.70;;;12.27;;
317;SDS011;146;53.448;10.228;2023-06-24T05:58:33;12.20;;;10.97;;
317;SDS011;146;53.448;10.228;2023-06-24T06:00:59;13.43;;;12.33;;
317;SDS011;146;53.448;10.228;2023-06-24T06:03:26;13.70;;;12.40;;
317;SDS011;146;53.448;10.228;2023-06-24T06:05:53;12.67;;;11.47;;
317;SDS011;146;53.448;10.228;2023-06-24T06:08:23;12.57;;;11.37;;
317;SDS011;146;53.448;10.228;2023-06-24T06:10:52;13.90;;;11.43;;
317;SDS011;146;53.448;10.228;2023-06-24T06:13:26;12.03;;;10.77;;
317;SDS011;146;53.448;10.228;2023-06-24T06:15:52;12.30;;;11.20;;
317;SDS011;146;53.448;10.228;2023-06-24T06:21:58;12.47;;;11.33;;
317;SDS011;146;53.448;10.228;2023-06-24T06:24:25;13.03;;;11.70;;
317;SDS011;146;53.448;10.228;2023-06-24T06:26:55;14.83;;;13.30;;
317;SDS011;146;53.448;10.228;2023-06-24T06:29:28;13.10;;;11.87;;
317;SDS011;146;53.448;10.228;2023-06-24T06:31:55;12.60;;;11.50;;
317;SDS011;146;53.448;10.228;2023-06-24T06:34:22;13.67;;;12.47;;
317;SDS011;146;53.448;10.228;2023-06-24T06:36:51;12.77;;;11.67;;
317;SDS011;146;53.448;10.228;2023-06-24T06:39:20;11.27;;;10.27;;
317;SDS011;146;53.448;10.228;2023-06-24T06:41:47;11.17;;;10.17;;
317;SDS011;146;53.448;10.228;2023-06-24T06:44:14;10.47;;;9.37;;
317;SDS011;146;53.448;10.228;2023-06-24T06:46:42;11.40;;;10.40;;
317;SDS011;146;53.448;10.228;2023-06-24T06:49:09;9.40;;;8.70;;
317;SDS011;146;53.448;10.228;2023-06-24T06:51:36;10.60;;;9.70;;
317;SDS011;146;53.448;10.228;2023-06-24T06:54:03;9.57;;;8.70;;
317;SDS011;146;53.448;10.228;2023-06-24T06:56:30;11.43;;;9.00;;
317;SDS011;146;53.448;10.228;2023-06-24T06:59:00;8.67;;;8.07;;
317;SDS011;146;53.448;10.228;2023-06-24T07:01:27;9.90;;;8.83;;
317;SDS011;146;53.448;10.228;2023-06-24T07:03:55;9.33;;;8.53;;
317;SDS011;146;53.448;10.228;2023-06-24T07:06:23;9.10;;;8.27;;
317;SDS011;146;53.448;10.228;2023-06-24T07:08:53;8.60;;;7.90;;
317;SDS011;146;53.448;10.228;2023-06-24T07:11:20;9.13;;;8.23;;
317;SDS011;146;53.448;10.228;2023-06-24T07:13:50;8.27;;;7.63;;
317;SDS011;146;53.448;10.228;2023-06-24T07:16:17;8.10;;;7.47;;
317;SDS011;146;53.448;10.228;2023-06-24T07:18:44;9.00;;;7.17;;
317;SDS011;146;53.448;10.228;2023-06-24T07:21:12;11.03;;;7.50;;
317;SDS011;146;53.448;10.228;2023-06-24T07:23:42;7.60;;;7.03;;
317;SDS011;146;53.448;10.228;2023-06-24T07:26:09;8.80;;;7.90;;
317;SDS011;146;53.448;10.228;2023-06-24T07:28:39;7.30;;;6.80;;
317;SDS011;146;53.448;10.228;2023-06-24T07:31:15;8.33;;;7.63;;
317;SDS011;146;53.448;10.228;2023-06-24T07:33:44;5.33;;;4.93;;
317;SDS011;146;53.448;10.228;2023-06-24T07:36:19;6.67;;;6.10;;
317;SDS011;146;53.448;10.228;2023-06-24T07:38:45;6.97;;;5.97;;
317;SDS011;146;53.448;10.228;2023-06-24T07:41:18;6.83;;;6.23;;
317;SDS011;146;53.448;10.228;2023-06-24T07:43:48;5.80;;;5.40;;
317;SDS011;146;53.448;10.228;2023-06-24T07:46:18;6.83;;;6.20;;
317;SDS011;146;53.448;10.228;2023-06-24T07:49:07;7.07;;;6.47;;
317;SDS011;146;53.448;10.228;2023-06-24T07:51:41;6.77;;;6.17;;
317;SDS011;146;53.448;10.228;2023-06-24T07:54:09;6.50;;;6.00;;
317;SDS011;146;53.448;10.228;2023-06-24T07:56:36;7.20;;;6.70;;
317;SDS011;146;53.448;10.228;2023-06-24T07:59:11;6.27;;;5.20;;
317;SDS011;146;53.448;10.228;2023-06-24T08:01:40;6.40;;;5.80;;
317;SDS011;146;53.448;10.228;2023-06-24T08:04:14;5.53;;;5.13;;
317;SDS011;146;53.448;10.228;2023-06-24T08:06:42;6.07;;;5.57;;
317;SDS011;146;53.448;10.228;2023-06-24T08:09:12;5.30;;;4.90;;
317;SDS011;146;53.448;10.228;2023-06-24T08:11:39;5.10;;;4.70;;
317;SDS011;146;53.448;10.228;2023-06-24T08:14:06;5.83;;;5.33;;
317;SDS011;146;53.448;10.228;2023-06-24T08:16:33;5.83;;;5.43;;
317;SDS011;146;53.448;10.228;2023-06-24T08:18:59;5.30;;;4.90;;
317;SDS011;146;53.448;10.228;2023-06-24T08:21:32;5.90;;;5.50;;
317;SDS011;146;53.448;10.228;2023-06-24T08:24:03;6.23;;;5.23;;
317;SDS011;146;53.448;10.228;2023-06-24T08:26:31;4.53;;;4.13;;
317;SDS011;146;53.448;10.228;2023-06-24T08:28:57;4.70;;;4.30;;
317;SDS011;146;53.448;10.228;2023-06-24T08:31:24;6.90;;;5.30;;
317;SDS011;146;53.448;10.228;2023-06-24T08:33:54;4.93;;;4.53;;
317;SDS011;146;53.448;10.228;2023-06-24T08:36:30;4.47;;;4.17;;
317;SDS011;146;53.448;10.228;2023-06-24T08:38:57;4.80;;;4.40;;
317;SDS011;146;53.448;10.228;2023-06-24T08:41:25;6.17;;;4.87;;
317;SDS011;146;53.448;10.228;2023-06-24T08:43:55;5.00;;;4.60;;
317;SDS011;146;53.448;10.228;2023-06-24T08:46:22;6.03;;;5.43;;
317;SDS011;146;53.448;10.228;2023-06-24T08:48:59;6.73;;;6.03;;
317;SDS011;146;53.448;10.228;2023-06-24T08:51:39;6.23;;;5.63;;
317;SDS011;146;53.448;10.228;2023-06-24T08:54:10;5.87;;;5.40;;
317;SDS011;146;53.448;10.228;2023-06-24T08:56:38;6.90;;;6.30;;
317;SDS011;146;53.448;10.228;2023-06-24T08:59:08;6.73;;;6.23;;
317;SDS011;146;53.448;10.228;2023-06-24T09:01:37;7.00;;;6.47;;
317;SDS011;146;53.448;10.228;2023-06-24T09:04:07;6.63;;;6.13;;
317;SDS011;146;53.448;10.228;2023-06-24T09:06:37;6.60;;;6.00;;
317;SDS011;146;53.448;10.228;2023-06-24T09:09:04;6.57;;;6.00;;
317;SDS011;146;53.448;10.228;2023-06-24T09:11:31;6.30;;;5.90;;
317;SDS011;146;53.448;10.228;2023-06-24T09:13:59;6.37;;;5.87;;
317;SDS011;146;53.448;10.228;2023-06-24T09:16:27;6.23;;;5.73;;
317;SDS011;146;53.448;10.228;2023-06-24T09:18:55;5.80;;;5.30;;
317;SDS011;146;53.448;10.228;2023-06-24T09:21:22;7.10;;;6.43;;
317;SDS011;146;53.448;10.228;2023-06-24T09:23:52;5.97;;;5.57;;
317;SDS011;146;53.448;10.228;2023-06-24T09:26:19;6.00;;;5.50;;
317;SDS011;146;53.448;10.228;2023-06-24T09:28:54;6.17;;;5.57;;
317;SDS011;146;53.448;10.228;2023-06-24T09:31:25;6.60;;;6.20;;
317;SDS011;146;53.448;10.228;2023-06-24T09:34:03;6.07;;;5.67;;
317;SDS011;146;53.448;10.228;2023-06-24T09:36:32;6.50;;;6.00;;
317;SDS011;146;53.448;10.228;2023-06-24T09:39:07;7.03;;;5.93;;
317;SDS011;146;53.448;10.228;2023-06-24T09:41:34;6.03;;;5.47;;
317;SDS011;146;53.448;10.228;2023-06-24T09:44:07;6.57;;;5.97;;
317;SDS011;146;53.448;10.228;2023-06-24T09:46:39;5.90;;;5.40;;
317;SDS011;146;53.448;10.228;2023-06-24T09:49:14;6.53;;;6.00;;
317;SDS011;146;53.448;10.228;2023-06-24T09:51:44;7.10;;;6.60;;
317;SDS011;146;53.448;10.228;2023-06-24T09:54:12;6.63;;;6.03;;
317;SDS011;146;53.448;10.228;2023-06-24T09:56:42;5.83;;;5.33;;
317;SDS011;146;53.448;10.228;2023-06-24T09:59:11;6.10;;;5.70;;
317;SDS011;146;53.448;10.228;2023-06-24T10:01:42;6.93;;;6.40;;
317;SDS011;146;53.448;10.228;2023-06-24T10:04:14;6.80;;;6.30;;
317;SDS011;146;53.448;10.228;2023-06-24T10:06:43;6.40;;;5.90;;
317;SDS011;146;53.448;10.228;2023-06-24T10:09:13;7.30;;;6.47;;
317;SDS011;146;53.448;10.228;2023-06-24T10:11:48;7.40;;;6.80;;
317;SDS011;146;53.448;10.228;2023-06-24T10:14:14;7.10;;;6.60;;
317;SDS011;146;53.448;10.228;2023-06-24T10:16:48;7.20;;;6.60;;
317;SDS011;146;53.448;10.228;2023-06-24T10:19:19;7.20;;;6.60;;
317;SDS011;146;53.448;10.228;2023-06-24T10:24:40;7.00;;;6.40;;
317;SDS011;146;53.448;10.228;2023-06-24T10:27:13;7.47;;;6.87;;
317;SDS011;146;53.448;10.228;2023-06-24T10:29:49;8.13;;;7.53;;
317;SDS011;146;53.448;10.228;2023-06-24T10:32:25;7.30;;;6.77;;
317;SDS011;146;53.448;10.228;2023-06-24T10:34:55;7.10;;;6.60;;
317;SDS011;146;53.448;10.228;2023-06-24T10:37:23;7.07;;;6.57;;
317;SDS011;146;53.448;10.228;2023-06-24T10:39:51;6.57;;;5.97;;
317;SDS011;146;53.448;10.228;2023-06-24T10:42:36;7.20;;;6.70;;
317;SDS011;146;53.448;10.228;2023-06-24T10:45:19;6.83;;;6.43;;
317;SDS011;146;53.448;10.228;2023-06-24T10:47:51;6.70;;;6.20;;
317;SDS011;146;53.448;10.228;2023-06-24T10:50:21;6.57;;;6.07;;
317;SDS011;146;53.448;10.228;2023-06-24T10:52:57;6.10;;;5.63;;
317;SDS011;146;53.448;10.228;2023-06-24T10:55:25;6.93;;;6.17;;
317;SDS011;146;53.448;10.228;2023-06-24T10:57:52;6.10;;;5.70;;
317;SDS011;146;53.448;10.228;2023-06-24T11:00:20;6.10;;;5.70;;
317;SDS011;146;53.448;10.228;2023-06-24T11:02:54;6.57;;;6.07;;
317;SDS011;146;53.448;10.228;2023-06-24T11:05:24;6.83;;;6.20;;
317;SDS011;146;53.448;10.228;2023-06-24T11:07:53;8.00;;;6.10;;
317;SDS011;146;53.448;10.228;2023-06-24T11:10:22;6.60;;;6.10;;
317;SDS011;146;53.448;10.228;2023-06-24T11:12:51;5.77;;;5.43;;
317;SDS011;146;53.448;10.228;2023-06-24T11:15:19;6.10;;;5.60;;
317;SDS011;146;53.448;10.228;2023-06-24T11:17:50;6.00;;;5.60;;
317;SDS011;146;53.448;10.228;2023-06-24T11:20:18;5.63;;;5.13;;
317;SDS011;146;53.448;10.228;2023-06-24T11:22:51;5.43;;;5.03;;
317;SDS011;146;53.448;10.228;2023-06-24T11:25:19;5.80;;;5.33;;
317;SDS011;146;53.448;10.228;2023-06-24T11:27:49;5.27;;;4.97;;
317;SDS011;146;53.448;10.228;2023-06-24T11:30:17;5.30;;;4.90;;
317;SDS011;146;53.448;10.228;2023-06-24T11:32:44;5.40;;;4.97;;
317;SDS011;146;53.448;10.228;2023-06-24T11:35:13;6.17;;;5.67;;
317;SDS011;146;53.448;10.228;2023-06-24T11:37:45;5.60;;;5.20;;
317;SDS011;146;53.448;10.228;2023-06-24T11:40:28;5.70;;;5.30;;
317;SDS011;146;53.448;10.228;2023-06-24T11:43:02;5.37;;;4.97;;
317;SDS011;146;53.448;10.228;2023-06-24T11:45:30;5.20;;;4.80;;
317;SDS011;146;53.448;10.228;2023-06-24T11:48:06;5.90;;;5.40;;
317;SDS011;146;53.448;10.228;2023-06-24T11:50:33;5.90;;;5.50;;
317;SDS011;146;53.448;10.228;2023-06-24T11:53:10;5.40;;;5.10;;
317;SDS011;146;53.448;10.228;2023-06-24T11:55:37;6.00;;;5.50;;
317;SDS011;146;53.448;10.228;2023-06-24T11:58:18;5.30;;;5.00;;
317;SDS011;146;53.448;10.228;2023-06-24T12:00:52;5.20;;;4.80;;
317;SDS011;146;53.448;10.228;2023-06-24T12:03:25;4.83;;;4.43;;
317;SDS011;146;53.448;10.228;2023-06-24T12:05:55;5.40;;;4.90;;
317;SDS011;146;53.448;10.228;2023-06-24T12:08:25;4.37;;;4.07;;
317;SDS011;146;53.448;10.228;2023-06-24T12:10:52;4.57;;;4.27;;
317;SDS011;146;53.448;10.228;2023-06-24T12:13:25;5.30;;;4.90;;
317;SDS011;146;53.448;10.228;2023-06-24T12:15:55;6.60;;;4.33;;
317;SDS011;146;53.448;10.228;2023-06-24T12:18:22;5.00;;;4.60;;
317;SDS011;146;53.448;10.228;2023-06-24T12:20:51;5.20;;;4.70;;
317;SDS011;146;53.448;10.228;2023-06-24T12:23:18;5.13;;;4.47;;
317;SDS011;146;53.448;10.228;2023-06-24T12:26:01;5.83;;;5.43;;
317;SDS011;146;53.448;10.228;2023-06-24T12:28:28;6.30;;;5.70;;
317;SDS011;146;53.448;10.228;2023-06-24T12:30:55;5.43;;;5.03;;
317;SDS011;146;53.448;10.228;2023-06-24T12:33:28;5.37;;;4.87;;
317;SDS011;146;53.448;10.228;2023-06-24T12:35:58;4.90;;;4.60;;
317;SDS011;146;53.448;10.228;2023-06-24T12:38:35;5.87;;;5.40;;
317;SDS011;146;53.448;10.228;2023-06-24T12:41:01;5.83;;;5.37;;
317;SDS011;146;53.448;10.228;2023-06-24T12:43:37;5.07;;;4.77;;
317;SDS011;146;53.448;10.228;2023-06-24T12:46:04;4.83;;;4.40;;
317;SDS011;146;53.448;10.228;2023-06-24T12:48:37;4.83;;;4.23;;
317;SDS011;146;53.448;10.228;2023-06-24T12:51:10;5.90;;;4.40;;
317;SDS011;146;53.448;10.228;2023-06-24T12:53:46;6.37;;;5.50;;
317;SDS011;146;53.448;10.228;2023-06-24T12:56:19;4.90;;;4.50;;
317;SDS011;146;53.448;10.228;2023-06-24T12:58:48;5.63;;;5.20;;
317;SDS011;146;53.448;10.228;2023-06-24T13:01:15;5.50;;;5.10;;
317;SDS011;146;53.448;10.228;2023-06-24T13:03:42;5.57;;;4.90;;
317;SDS011;146;53.448;10.228;2023-06-24T13:06:08;5.40;;;5.00;;
317;SDS011;146;53.448;10.228;2023-06-24T13:08:35;7.13;;;5.13;;
317;SDS011;146;53.448;10.228;2023-06-24T13:11:03;5.70;;;5.30;;
317;SDS011;146;53.448;10.228;2023-06-24T13:13:30;5.80;;;4.93;;
317;SDS011;146;53.448;10.228;2023-06-24T13:16:00;6.63;;;5.80;;
317;SDS011;146;53.448;10.228;2023-06-24T13:18:27;5.20;;;4.80;;
317;SDS011;146;53.448;10.228;2023-06-24T13:20:54;6.70;;;5.23;;
317;SDS011;146;53.448;10.228;2023-06-24T13:23:23;4.80;;;4.50;;
317;SDS011;146;53.448;10.228;2023-06-24T13:25:56;5.87;;;5.47;;
317;SDS011;146;53.448;10.228;2023-06-24T13:28:26;4.93;;;4.63;;
317;SDS011;146;53.448;10.228;2023-06-24T13:30:57;5.30;;;4.90;;
317;SDS011;146;53.448;10.228;2023-06-24T13:33:27;5.07;;;4.57;;
317;SDS011;146;53.448;10.228;2023-06-24T13:35:54;5.00;;;4.70;;
317;SDS011;146;53.448;10.228;2023-06-24T13:38:32;5.27;;;4.90;;
317;SDS011;146;53.448;10.228;2023-06-24T13:41:02;5.20;;;4.83;;
317;SDS011;146;53.448;10.228;2023-06-24T13:43:38;5.13;;;4.70;;
317;SDS011;146;53.448;10.228;2023-06-24T13:46:05;6.50;;;5.80;;
317;SDS011;146;53.448;10.228;2023-06-24T13:48:33;5.47;;;4.93;;
317;SDS011;146;53.448;10.228;2023-06-24T13:51:00;5.60;;;5.20;;
317;SDS011;146;53.448;10.228;2023-06-24T13:53:30;5.23;;;4.83;;
317;SDS011;146;53.448;10.228;2023-06-24T13:55:56;5.60;;;4.90;;
317;SDS011;146;53.448;10.228;2023-06-24T13:58:23;5.30;;;4.93;;
317;SDS011;146;53.448;10.228;2023-06-24T14:00:57;5.23;;;4.93;;
317;SDS011;146;53.448;10.228;2023-06-24T14:03:26;4.97;;;4.63;;
317;SDS011;146;53.448;10.228;2023-06-24T14:05:53;5.23;;;4.83;;
317;SDS011;146;53.448;10.228;2023-06-24T14:08:21;5.00;;;4.60;;
317;SDS011;146;53.448;10.228;2023-06-24T14:10:51;6.13;;;5.73;;
317;SDS011;146;53.448;10.228;2023-06-24T14:13:24;6.30;;;5.80;;
317;SDS011;146;53.448;10.228;2023-06-24T14:15:53;5.63;;;5.07;;
317;SDS011;146;53.448;10.228;2023-06-24T14:18:25;6.00;;;5.40;;
317;SDS011;146;53.448;10.228;2023-06-24T14:20:52;6.10;;;5.70;;
317;SDS011;146;53.448;10.228;2023-06-24T14:23:24;4.87;;;4.47;;
317;SDS011;146;53.448;10.228;2023-06-24T14:26:00;4.10;;;3.80;;
317;SDS011;146;53.448;10.228;2023-06-24T14:28:29;4.60;;;4.30;;
317;SDS011;146;53.448;10.228;2023-06-24T14:31:03;4.10;;;3.90;;
317;SDS011;146;53.448;10.228;2023-06-24T14:33:33;5.00;;;4.60;;
317;SDS011;146;53.448;10.228;2023-06-24T14:36:02;5.23;;;4.83;;
317;SDS011;146;53.448;10.228;2023-06-24T14:38:30;5.60;;;5.20;;
317;SDS011;146;53.448;10.228;2023-06-24T14:41:02;5.90;;;5.50;;
317;SDS011;146;53.448;10.228;2023-06-24T14:43:45;3.70;;;3.50;;
317;SDS011;146;53.448;10.228;2023-06-24T14:46:27;5.20;;;4.90;;
317;SDS011;146;53.448;10.228;2023-06-24T14:48:56;5.37;;;5.03;;
317;SDS011;146;53.448;10.228;2023-06-24T14:51:24;5.20;;;4.80;;
317;SDS011;146;53.448;10.228;2023-06-24T14:53:51;5.00;;;4.60;;
317;SDS011;146;53.448;10.228;2023-06-24T14:56:18;5.60;;;5.20;;
317;SDS011;146;53.448;10.228;2023-06-24T14:58:46;5.20;;;4.67;;
317;SDS011;146;53.448;10.228;2023-06-24T15:01:20;4.90;;;4.60;;
317;SDS011;146;53.448;10.228;2023-06-24T15:03:46;5.63;;;5.03;;
317;SDS011;146;53.448;10.228;2023-06-24T15:06:13;5.10;;;4.70;;
317;SDS011;146;53.448;10.228;2023-06-24T15:08:40;5.47;;;4.60;;
317;SDS011;146;53.448;10.228;2023-06-24T15:11:13;5.70;;;5.30;;
317;SDS011;146;53.448;10.228;2023-06-24T15:13:40;5.20;;;4.80;;
317;SDS011;146;53.448;10.228;2023-06-24T15:16:20;5.70;;;5.27;;
317;SDS011;146;53.448;10.228;2023-06-24T15:18:50;5.50;;;5.03;;
317;SDS011;146;53.448;10.228;2023-06-24T15:21:17;5.00;;;4.60;;
317;SDS011;146;53.448;10.228;2023-06-24T15:23:46;5.17;;;4.77;;
317;SDS011;146;53.448;10.228;2023-06-24T15:26:13;5.27;;;4.97;;
317;SDS011;146;53.448;10.228;2023-06-24T15:28:40;5.73;;;5.33;;
317;SDS011;146;53.448;10.228;2023-06-24T15:31:06;5.50;;;5.10;;
317;SDS011;146;53.448;10.228;2023-06-24T15:33:38;6.47;;;5.97;;
317;SDS011;146;53.448;10.228;2023-06-24T15:36:04;5.20;;;4.90;;
317;SDS011;146;53.448;10.228;2023-06-24T15:38:32;5.50;;;5.10;;
317;SDS011;146;53.448;10.228;2023-06-24T15:41:09;5.10;;;4.80;;
317;SDS011;146;53.448;10.228;2023-06-24T15:43:36;5.43;;;5.03;;
317;SDS011;146;53.448;10.228;2023-06-24T15:46:02;5.57;;;5.27;;
317;SDS011;146;53.448;10.228;2023-06-24T15:48:29;6.23;;;5.63;;
317;SDS011;146;53.448;10.228;2023-06-24T15:50:57;5.90;;;5.40;;